Terminal Aerodrome Forecast
Issued by NWS Charleston, WV

Current Version | Previous Version | Graphics & Text | Print | Product List | Glossary On
Versions: 1 2 3 4 5 6 7 8 9 10 11 12 13 14 15 16 17 18 19 20 21 22 23 24 25 26 27
406
FTUS41 KRLX 180902 AAA
TAFBKW
TAF AMD
KBKW 180902Z 1809/1906 27008KT P6SM BKN025
     FM181200 28009G15KT 6SM -RADZ OVC010
     FM181600 29010G16KT P6SM BKN010
     FM182300 30006KT P6SM SCT007
     FM190500 VRB03KT P6SM SCT010=

USA.gov is the U.S. government's official web portal to all federal, state and local government web resources and services.